createdAt,value
2022-09-16T00:04:09.455Z,100.00
2022-09-16T00:09:11.584Z,100.00
2022-09-16T00:14:13.684Z,100.00
2022-09-16T00:19:17.286Z,100.00
2022-09-16T00:24:19.395Z,100.00
2022-09-16T00:29:21.430Z,100.00
2022-09-16T00:34:23.684Z,100.00
2022-09-16T00:39:25.938Z,100.00
2022-09-16T00:44:58.826Z,100.00
2022-09-16T00:50:14.532Z,100.00
2022-09-16T00:55:22.120Z,100.00
2022-09-16T01:00:24.396Z,100.00
2022-09-16T01:05:27.437Z,100.00
2022-09-16T01:10:29.569Z,100.00
2022-09-16T01:15:49.636Z,100.00
2022-09-16T01:21:01.542Z,100.00
2022-09-16T01:26:33.407Z,100.00
2022-09-16T01:32:07.163Z,100.00
2022-09-16T01:37:26.674Z,100.00
2022-09-16T01:42:43.876Z,100.00
2022-09-16T01:48:32.030Z,100.00
2022-09-16T01:53:40.295Z,100.00
2022-09-16T01:59:10.054Z,100.00
2022-09-16T02:04:22.422Z,100.00
2022-09-16T02:09:37.861Z,100.00
2022-09-16T02:14:43.328Z,100.00
2022-09-16T02:19:54.515Z,100.00
2022-09-16T02:24:59.048Z,100.00
2022-09-16T02:30:17.285Z,100.00
2022-09-16T02:35:22.215Z,100.00
2022-09-16T02:40:41.017Z,100.00
2022-09-16T02:46:04.827Z,100.00
2022-09-16T02:51:23.432Z,100.00
2022-09-16T02:56:32.187Z,100.00
2022-09-16T03:01:41.611Z,100.00
2022-09-16T03:06:44.213Z,100.00
2022-09-16T03:11:58.312Z,100.00
2022-09-16T03:17:08.647Z,100.00
2022-09-16T03:22:19.480Z,100.00
2022-09-16T03:27:44.868Z,100.00
2022-09-16T03:33:00.758Z,100.00
2022-09-16T03:43:54.972Z,100.00
2022-09-16T03:48:57.672Z,100.00
2022-09-16T03:53:59.765Z,100.00
2022-09-16T03:59:01.923Z,100.00
2022-09-16T04:04:04.384Z,100.00
2022-09-16T04:09:08.311Z,100.00
2022-09-16T04:14:11.386Z,100.00
2022-09-16T04:19:14.702Z,100.00
2022-09-16T04:24:16.785Z,100.00
2022-09-16T04:29:18.909Z,100.00
2022-09-16T04:34:21.203Z,100.00
2022-09-16T04:39:23.289Z,100.00
2022-09-16T04:44:26.847Z,100.00
2022-09-16T04:49:28.865Z,100.00
2022-09-16T04:54:31.052Z,100.00
2022-09-16T04:59:33.111Z,100.00
2022-09-16T05:04:35.516Z,100.00
2022-09-16T05:09:37.783Z,100.00
2022-09-16T05:14:39.981Z,98.81
2022-09-16T05:19:42.161Z,97.19
2022-09-16T05:24:44.986Z,95.17
2022-09-16T05:29:47.657Z,96.90
2022-09-16T05:50:06.683Z,85.94
2022-09-16T05:55:09.352Z,89.44
2022-09-16T06:00:12.761Z,92.68
2022-09-16T06:05:15.025Z,90.29
2022-09-16T06:10:17.259Z,81.16
2022-09-16T06:15:19.323Z,59.75
2022-09-16T06:20:21.485Z,46.74
2022-09-16T06:25:23.850Z,42.15
2022-09-16T06:30:30.435Z,39.00
2022-09-16T06:35:35.110Z,38.34
2022-09-16T06:40:37.339Z,45.03
2022-09-16T06:45:39.549Z,50.77
2022-09-16T06:50:41.680Z,45.81
2022-09-16T06:55:44.096Z,39.76
2022-09-16T07:00:46.296Z,43.20
2022-09-16T07:05:58.607Z,42.76
2022-09-16T07:11:03.664Z,47.52
2022-09-16T07:16:13.427Z,53.18
2022-09-16T07:21:17.258Z,52.67
2022-09-16T07:26:26.536Z,51.53
2022-09-16T07:31:31.597Z,46.77
2022-09-16T07:36:42.165Z,43.67
2022-09-16T07:41:46.612Z,40.90
2022-09-16T07:46:51.507Z,42.50
2022-09-16T07:51:53.994Z,42.52
2022-09-16T07:56:57.492Z,42.03
2022-09-16T08:01:59.617Z,46.70
2022-09-16T08:07:01.753Z,45.53
2022-09-16T08:12:06.069Z,44.89
2022-09-16T08:17:08.611Z,44.92
2022-09-16T08:22:10.672Z,44.17
2022-09-16T08:27:12.703Z,33.14
2022-09-16T08:32:14.932Z,29.20
2022-09-16T08:37:17.229Z,31.95
2022-09-16T08:42:44.029Z,29.91
2022-09-16T08:47:49.611Z,27.78
2022-09-16T08:52:55.331Z,26.02
2022-09-16T08:58:16.427Z,25.63
2022-09-16T09:03:39.965Z,24.97
2022-09-16T09:09:18.309Z,25.75
2022-09-16T09:14:30.153Z,24.83
2022-09-16T09:19:50.027Z,24.42
2022-09-16T09:25:06.995Z,25.22
2022-09-16T09:30:21.585Z,25.66
2022-09-16T09:36:05.433Z,23.82
2022-09-16T09:41:21.136Z,24.44
2022-09-16T09:46:41.724Z,23.49
2022-09-16T09:52:05.114Z,24.44
2022-09-16T09:57:37.927Z,24.46
2022-09-16T10:02:47.460Z,24.29
2022-09-16T10:07:55.357Z,25.06
2022-09-16T10:13:10.119Z,26.25
2022-09-16T10:18:21.166Z,26.45
2022-09-16T10:23:29.675Z,25.58
2022-09-16T10:28:32.524Z,25.82
2022-09-16T10:33:41.727Z,26.58
2022-09-16T10:39:02.259Z,27.91
2022-09-16T10:44:17.518Z,28.11
2022-09-16T10:49:25.189Z,28.40
2022-09-16T10:54:28.394Z,29.11
2022-09-16T10:59:30.507Z,30.20
2022-09-16T11:04:36.231Z,31.04
2022-09-16T11:09:50.761Z,32.62
2022-09-16T11:15:06.993Z,33.26
2022-09-16T11:20:34.204Z,34.34
2022-09-16T11:25:48.545Z,34.89
2022-09-16T11:31:02.629Z,34.59
2022-09-16T11:37:00.595Z,36.49
2022-09-16T11:42:30.241Z,37.48
2022-09-16T11:47:44.967Z,36.51
2022-09-16T11:53:01.529Z,36.07
2022-09-16T11:58:42.254Z,36.92
2022-09-16T12:03:55.878Z,39.51
2022-09-16T12:09:06.471Z,39.70
2022-09-16T12:14:20.963Z,39.20
2022-09-16T12:19:30.322Z,42.83
2022-09-16T12:24:43.000Z,42.35
2022-09-16T12:30:01.511Z,41.49
2022-09-16T12:35:15.472Z,42.13
2022-09-16T12:40:25.920Z,44.13
2022-09-16T12:45:48.100Z,44.61
2022-09-16T12:51:27.093Z,46.47
2022-09-16T12:56:50.716Z,49.87
2022-09-16T13:02:02.026Z,50.91
2022-09-16T13:07:05.272Z,45.83
2022-09-16T13:12:39.149Z,44.79
2022-09-16T13:17:43.991Z,46.41
2022-09-16T13:23:09.011Z,46.41
2022-09-16T13:28:32.814Z,47.09
2022-09-16T13:33:35.100Z,48.49
2022-09-16T13:38:41.349Z,49.17
2022-09-16T13:43:43.528Z,50.27
2022-09-16T13:49:16.618Z,52.21
2022-09-16T13:54:53.475Z,59.45
2022-09-16T14:00:06.736Z,63.23
2022-09-16T14:05:54.389Z,60.67
2022-09-16T14:11:12.407Z,55.93
2022-09-16T14:16:23.144Z,56.43
2022-09-16T14:21:25.517Z,56.86
2022-09-16T14:26:27.717Z,55.95
2022-09-16T14:31:32.112Z,56.76
2022-09-16T14:36:40.698Z,59.72
2022-09-16T14:41:53.444Z,58.53
2022-09-16T14:47:09.069Z,58.92
2022-09-16T14:52:24.714Z,59.31
2022-09-16T14:57:29.861Z,61.74
2022-09-16T15:02:41.380Z,63.07
2022-09-16T15:08:02.601Z,66.79
2022-09-16T15:13:13.043Z,75.00
2022-09-16T15:18:24.751Z,83.98
2022-09-16T15:23:28.521Z,93.73
2022-09-16T15:28:31.216Z,100.00
2022-09-16T15:33:42.971Z,100.00
2022-09-16T15:38:45.647Z,100.00
2022-09-16T15:43:48.547Z,100.00
2022-09-16T15:49:02.403Z,100.00
2022-09-16T15:54:27.830Z,100.00
2022-09-16T15:59:41.933Z,100.00
2022-09-16T16:04:44.668Z,100.00
2022-09-16T16:09:50.193Z,100.00
2022-09-16T16:15:00.878Z,100.00
2022-09-16T16:20:03.352Z,100.00
2022-09-16T16:25:08.799Z,100.00
2022-09-16T16:30:15.219Z,100.00
2022-09-16T16:35:17.423Z,100.00
2022-09-16T16:40:22.432Z,100.00
2022-09-16T16:45:24.676Z,100.00
2022-09-16T16:50:26.832Z,100.00
2022-09-16T16:55:29.134Z,100.00
2022-09-16T17:00:31.807Z,100.00
2022-09-16T17:05:33.939Z,100.00
2022-09-16T17:10:36.133Z,100.00
2022-09-16T17:15:38.460Z,100.00
2022-09-16T17:20:40.944Z,100.00
2022-09-16T17:25:43.071Z,100.00
2022-09-16T17:30:48.632Z,100.00
2022-09-16T17:36:02.352Z,100.00
2022-09-16T17:41:15.343Z,100.00
2022-09-16T17:46:24.351Z,100.00
2022-09-16T17:51:27.086Z,100.00
2022-09-16T17:56:29.802Z,100.00
2022-09-16T18:01:32.366Z,100.00
2022-09-16T18:06:44.465Z,100.00
2022-09-16T18:11:47.854Z,100.00
2022-09-16T18:16:50.205Z,100.00
2022-09-16T18:21:52.843Z,100.00
2022-09-16T18:26:55.130Z,100.00
2022-09-16T18:31:57.662Z,100.00
2022-09-16T18:36:59.925Z,100.00
2022-09-16T18:42:02.144Z,100.00
2022-09-16T18:47:04.523Z,100.00
2022-09-16T18:52:07.095Z,100.00
2022-09-16T18:57:09.480Z,100.00
2022-09-16T19:02:13.618Z,100.00
2022-09-16T19:07:17.495Z,100.00
2022-09-16T19:12:19.847Z,100.00
2022-09-16T19:17:23.156Z,100.00
2022-09-16T19:22:25.490Z,100.00
2022-09-16T19:27:27.700Z,100.00
2022-09-16T19:32:29.933Z,100.00
2022-09-16T19:37:32.215Z,100.00
2022-09-16T19:42:34.313Z,100.00
2022-09-16T19:47:38.713Z,100.00
2022-09-16T19:52:41.114Z,100.00
2022-09-16T19:57:46.400Z,100.00
2022-09-16T20:02:48.880Z,100.00
2022-09-16T20:07:51.108Z,100.00
2022-09-16T20:12:59.348Z,100.00
2022-09-16T20:18:04.205Z,100.00
2022-09-16T20:23:20.347Z,100.00
2022-09-16T20:28:23.121Z,100.00
2022-09-16T20:33:30.090Z,100.00
2022-09-16T20:38:37.080Z,100.00
2022-09-16T20:43:40.194Z,100.00
2022-09-16T20:48:42.870Z,100.00
2022-09-16T20:53:54.363Z,100.00
2022-09-16T20:58:56.591Z,100.00
2022-09-16T21:04:05.194Z,100.00
2022-09-16T21:09:10.367Z,100.00
2022-09-16T21:14:15.458Z,100.00
2022-09-16T21:19:18.162Z,100.00
2022-09-16T21:24:20.286Z,100.00
2022-09-16T21:29:22.284Z,100.00
2022-09-16T21:34:25.304Z,100.00
2022-09-16T21:39:28.353Z,100.00
2022-09-16T21:44:30.431Z,100.00
2022-09-16T21:49:35.397Z,100.00
2022-09-16T21:54:37.462Z,100.00
2022-09-16T21:59:39.538Z,100.00
2022-09-16T22:04:41.696Z,100.00
2022-09-16T22:09:43.888Z,100.00
2022-09-16T22:14:46.050Z,100.00
2022-09-16T22:19:48.143Z,100.00
2022-09-16T22:24:50.469Z,100.00
2022-09-16T22:29:53.211Z,100.00
2022-09-16T22:34:55.355Z,100.00
2022-09-16T22:39:57.547Z,100.00
2022-09-16T22:44:59.775Z,100.00
2022-09-16T22:50:02.056Z,100.00
2022-09-16T22:55:04.348Z,100.00
2022-09-16T23:00:06.948Z,100.00
2022-09-16T23:05:10.133Z,100.00
2022-09-16T23:10:12.320Z,100.00
2022-09-16T23:15:14.529Z,100.00
2022-09-16T23:20:16.831Z,100.00
2022-09-16T23:25:20.364Z,100.00
2022-09-16T23:30:22.639Z,100.00
2022-09-16T23:35:24.844Z,100.00
2022-09-16T23:40:28.908Z,100.00
2022-09-16T23:45:31.100Z,100.00
2022-09-16T23:50:33.216Z,100.00
2022-09-16T23:55:35.416Z,100.00
